Time;durP1;ratioP1;P1;durP2;ratioP2;P2;SDS_P1;SDS_P2;PMS_P1;PMS_P2;Temp;Humidity;BMP_temperature;BMP_pressure;BME280_temperature;BME280_humidity;BME280_pressure;Samples;Min_cycle;Max_cycle;Signal;HPM_P1;HPM_P2
2024/02/08 00:00:08;;;;;;;14.15;6.80;;;;;;;0.48;100.00;100268.81;5072680;28;20044;-57
2024/02/08 00:02:36;;;;;;;18.13;6.65;;;;;;;0.50;100.00;100263.56;5072472;28;20044;-57
2024/02/08 00:05:08;;;;;;;17.08;7.38;;;;;;;0.49;100.00;100254.97;5071801;28;20087;-58
2024/02/08 00:07:39;;;;;;;23.33;8.27;;;;;;;0.48;100.00;100261.03;5071930;28;20086;-58
2024/02/08 00:10:08;;;;;;;15.13;6.50;;;;;;;0.50;100.00;100256.69;5090883;28;20388;-58
2024/02/08 00:12:38;;;;;;;13.63;5.85;;;;;;;0.53;100.00;100260.03;5053284;28;20068;-58
2024/02/08 00:15:09;;;;;;;16.88;6.57;;;;;;;0.53;100.00;100267.81;5072464;28;20059;-58
2024/02/08 00:17:38;;;;;;;15.47;6.00;;;;;;;0.56;100.00;100259.94;5071164;28;20434;-58
2024/02/08 00:20:09;;;;;;;15.27;5.93;;;;;;;0.57;100.00;100256.47;5071987;28;20052;-58
2024/02/08 00:22:37;;;;;;;15.38;5.90;;;;;;;0.58;100.00;100264.16;5070299;28;20044;-58
2024/02/08 00:25:06;;;;;;;15.15;5.70;;;;;;;0.58;100.00;100253.81;5071216;28;20050;-58
2024/02/08 00:27:34;;;;;;;13.57;6.15;;;;;;;0.58;100.00;100252.97;5070915;28;20052;-58
2024/02/08 00:30:02;;;;;;;17.23;7.63;;;;;;;0.57;100.00;100252.13;5070546;28;20131;-58
2024/02/08 00:32:31;;;;;;;18.70;6.65;;;;;;;0.59;100.00;100252.09;5071558;28;20041;-58
2024/02/08 00:35:03;;;;;;;17.45;6.03;;;;;;;0.58;100.00;100258.16;5075603;28;20045;-48
2024/02/08 00:37:36;;;;;;;16.45;6.70;;;;;;;0.59;100.00;100260.69;5075303;28;20052;-47
2024/02/08 00:40:06;;;;;;;15.45;5.80;;;;;;;0.58;100.00;100258.16;5074166;28;20426;-51
2024/02/08 00:42:34;;;;;;;11.98;5.25;;;;;;;0.55;100.00;100256.50;5074525;28;20094;-52
2024/02/08 00:45:06;;;;;;;16.67;5.75;;;;;;;0.58;100.00;100255.56;5054072;28;20063;-49
2024/02/08 00:47:36;;;;;;;16.05;5.30;;;;;;;0.57;100.00;100254.69;5062277;28;20090;-46
2024/02/08 00:50:08;;;;;;;14.50;5.60;;;;;;;0.58;100.00;100252.97;5073394;28;20094;-49
2024/02/08 00:52:40;;;;;;;15.25;5.40;;;;;;;0.58;100.00;100255.56;5071859;28;20048;-49
2024/02/08 00:55:09;;;;;;;16.45;5.20;;;;;;;0.58;100.00;100253.81;5074540;28;20128;-48
2024/02/08 00:57:39;;;;;;;14.38;5.13;;;;;;;0.60;100.00;100256.34;5075253;28;20041;-49
2024/02/08 01:00:08;;;;;;;15.68;5.03;;;;;;;0.61;100.00;100265.81;5075072;28;20041;-49
2024/02/08 01:02:39;;;;;;;16.55;5.88;;;;;;;0.62;100.00;100263.16;5075323;28;20380;-48
2024/02/08 01:05:08;;;;;;;14.80;5.28;;;;;;;0.63;100.00;100270.03;5075174;28;20049;-47
2024/02/08 01:07:36;;;;;;;15.77;5.43;;;;;;;0.64;100.00;100257.94;5072940;28;20411;-49
2024/02/08 01:10:07;;;;;;;13.00;5.82;;;;;;;0.64;100.00;100258.81;5068004;28;20056;-49
2024/02/08 01:12:35;;;;;;;17.30;4.93;;;;;;;0.65;100.00;100259.63;5074389;28;20070;-49
2024/02/08 01:15:05;;;;;;;17.83;5.57;;;;;;;0.65;100.00;100263.06;5073501;28;20445;-47
2024/02/08 01:17:33;;;;;;;14.23;6.32;;;;;;;0.65;100.00;100262.22;5073591;28;20044;-50
2024/02/08 01:20:06;;;;;;;13.45;4.65;;;;;;;0.66;100.00;100258.75;5074981;28;20048;-49
2024/02/08 01:22:35;;;;;;;14.95;5.00;;;;;;;0.67;100.00;100253.50;5071304;28;20055;-49
2024/02/08 01:25:03;;;;;;;11.05;4.53;;;;;;;0.68;100.00;100262.13;5069083;28;20520;-50
2024/02/08 01:27:32;;;;;;;12.60;4.75;;;;;;;0.66;100.00;100254.41;5071353;28;20106;-49
2024/02/08 01:30:07;;;;;;;14.13;4.78;;;;;;;0.65;100.00;100249.28;5073288;28;20072;-48
2024/02/08 01:32:35;;;;;;;14.68;4.90;;;;;;;0.64;100.00;100252.75;5074408;28;20055;-49
2024/02/08 01:35:06;;;;;;;12.70;5.25;;;;;;;0.62;100.00;100250.22;5073271;28;20094;-51
2024/02/08 01:37:38;;;;;;;13.10;5.03;;;;;;;0.63;100.00;100251.09;5074480;28;20052;-51
2024/02/08 01:40:16;;;;;;;11.57;4.88;;;;;;;0.65;100.00;100244.09;5080930;28;20067;-48
2024/02/08 01:42:46;;;;;;;15.55;5.22;;;;;;;0.65;100.00;100239.75;5094259;28;20189;-49
2024/02/08 01:45:37;;;;;;;14.82;4.63;;;;;;;0.67;100.00;100242.31;5094622;28;20044;-50
2024/02/08 01:48:09;;;;;;;16.30;5.20;;;;;;;0.67;100.00;100231.97;5071536;28;20061;-52
2024/02/08 01:50:43;;;;;;;13.70;4.50;;;;;;;0.69;100.00;100229.31;5074302;28;20402;-51
2024/02/08 01:53:18;;;;;;;17.77;4.43;;;;;;;0.69;100.00;100227.56;5073788;28;20377;-46
2024/02/08 01:55:49;;;;;;;12.95;4.35;;;;;;;0.69;100.00;100231.91;5067512;28;20118;-47
2024/02/08 01:58:25;;;;;;;13.05;4.07;;;;;;;0.71;100.00;100236.16;5070549;28;20062;-49
2024/02/08 02:00:55;;;;;;;14.48;4.80;;;;;;;0.72;100.00;100239.56;5069832;28;20048;-51
2024/02/08 02:03:24;;;;;;;15.15;4.63;;;;;;;0.72;100.00;100237.81;5072591;28;20090;-51
2024/02/08 02:05:53;;;;;;;13.35;4.30;;;;;;;0.71;100.00;100230.97;5073861;28;20115;-50
2024/02/08 02:08:26;;;;;;;11.15;4.40;;;;;;;0.72;100.00;100230.03;5070660;28;20557;-51
2024/02/08 02:11:01;;;;;;;13.70;4.25;;;;;;;0.73;100.00;100234.34;5069292;28;20048;-51
2024/02/08 02:13:30;;;;;;;15.70;5.40;;;;;;;0.73;100.00;100239.50;5070895;28;20043;-48
2024/02/08 02:15:58;;;;;;;14.43;4.38;;;;;;;0.75;100.00;100234.28;5072935;28;20041;-50
2024/02/08 02:18:27;;;;;;;15.75;3.85;;;;;;;0.76;100.00;100233.38;5072888;28;20047;-52
2024/02/08 02:20:57;;;;;;;13.50;4.78;;;;;;;0.77;100.00;100235.09;5073239;28;20563;-48
2024/02/08 02:23:26;;;;;;;10.65;4.07;;;;;;;0.76;100.00;100221.28;5073332;28;20044;-47
2024/02/08 02:25:55;;;;;;;12.90;4.05;;;;;;;0.75;100.00;100214.44;5072638;28;20545;-51
2024/02/08 02:28:24;;;;;;;14.27;4.13;;;;;;;0.75;100.00;100210.97;5070876;28;20040;-47
2024/02/08 02:30:53;;;;;;;10.80;3.80;;;;;;;0.74;100.00;100207.56;5072116;28;20435;-48
2024/02/08 02:33:21;;;;;;;13.15;4.05;;;;;;;0.73;100.00;100203.28;5069969;28;20365;-50
2024/02/08 02:35:50;;;;;;;14.02;3.90;;;;;;;0.76;100.00;100210.09;5069532;28;20499;-49
2024/02/08 02:38:18;;;;;;;13.50;3.83;;;;;;;0.78;100.00;100203.13;5069440;28;20524;-51
2024/02/08 02:40:48;;;;;;;13.27;4.03;;;;;;;0.81;100.00;100203.00;5102593;28;20048;-50
2024/02/08 02:43:17;;;;;;;13.65;3.83;;;;;;;0.81;100.00;100209.03;5072943;28;20483;-47
2024/02/08 02:45:48;;;;;;;14.25;4.13;;;;;;;0.82;100.00;100202.13;5073146;28;20425;-50
2024/02/08 02:48:17;;;;;;;15.45;4.07;;;;;;;0.83;100.00;100196.03;5072347;28;20052;-48
2024/02/08 02:50:45;;;;;;;13.13;3.92;;;;;;;0.84;100.00;100201.16;5068543;28;20039;-49
2024/02/08 02:53:17;;;;;;;11.57;4.10;;;;;;;0.86;100.00;100201.13;5069595;28;20453;-47
2024/02/08 02:55:46;;;;;;;14.77;5.15;;;;;;;0.88;100.00;100201.06;5071526;28;20068;-52
2024/02/08 02:58:15;;;;;;;9.77;3.45;;;;;;;0.90;100.00;100202.69;5072718;28;20051;-46
2024/02/08 03:00:44;;;;;;;17.17;4.10;;;;;;;0.91;100.00;100195.75;5072765;28;20060;-51
2024/02/08 03:03:13;;;;;;;13.07;3.92;;;;;;;0.91;100.00;100185.41;5071412;28;20045;-48
2024/02/08 03:05:46;;;;;;;13.05;4.10;;;;;;;0.92;100.00;100200.06;5069202;28;20044;-46
2024/02/08 03:08:16;;;;;;;11.98;4.07;;;;;;;0.92;100.00;100197.47;5069435;28;20495;-47
2024/02/08 03:10:46;;;;;;;13.65;3.50;;;;;;;0.94;100.00;100193.06;5067183;28;20046;-48
2024/02/08 03:13:16;;;;;;;20.65;5.95;;;;;;;0.95;100.00;100195.59;5070629;28;20040;-46
2024/02/08 03:15:47;;;;;;;;;;;;;;;0.97;100.00;100200.75;5071255;28;20480;-51
2024/02/08 03:18:16;;;;;;;15.55;3.70;;;;;;;0.99;100.00;100188.56;5069077;28;20050;-48
2024/02/08 03:20:45;;;;;;;11.35;3.20;;;;;;;1.01;100.00;100184.19;5068362;28;20107;-46
2024/02/08 03:23:13;;;;;;;12.52;3.95;;;;;;;1.00;100.00;100180.75;5071629;28;20436;-47
2024/02/08 03:25:42;;;;;;;12.15;3.88;;;;;;;1.02;100.00;100185.88;5066837;28;20052;-46
2024/02/08 03:28:11;;;;;;;14.65;4.63;;;;;;;1.02;100.00;100180.69;5069551;28;20127;-47
2024/02/08 03:30:41;;;;;;;13.25;3.50;;;;;;;1.04;100.00;100178.91;5071984;28;20048;-51
2024/02/08 03:33:15;;;;;;;15.52;3.60;;;;;;;1.05;100.00;100174.56;5071831;28;20110;-48
2024/02/08 03:35:53;;;;;;;14.65;3.85;;;;;;;1.07;100.00;100167.59;5072318;28;20055;-48
2024/02/08 03:38:20;;;;;;;11.35;3.33;;;;;;;1.06;100.00;100166.72;5072191;28;20445;-50
2024/02/08 03:40:49;;;;;;;16.55;5.30;;;;;;;1.09;100.00;100173.53;5072366;28;20037;-49
2024/02/08 03:43:17;;;;;;;9.85;2.75;;;;;;;1.09;100.00;100166.63;5071910;28;20055;-47
2024/02/08 03:45:47;;;;;;;15.25;3.30;;;;;;;1.10;100.00;100170.88;5072174;28;20052;-50
2024/02/08 03:48:15;;;;;;;10.02;3.42;;;;;;;1.11;100.00;100169.16;5072359;28;20399;-52
2024/02/08 03:50:44;;;;;;;12.00;4.35;;;;;;;1.11;100.00;100169.16;5072340;28;20044;-51
2024/02/08 03:53:13;;;;;;;10.38;3.70;;;;;;;1.10;100.00;100163.13;5072496;28;20506;-51
2024/02/08 03:55:43;;;;;;;9.68;3.63;;;;;;;1.11;100.00;100162.22;5072292;28;20454;-51
2024/02/08 03:58:14;;;;;;;10.63;3.10;;;;;;;1.12;100.00;100150.13;5069279;28;20051;-49
2024/02/08 04:00:46;;;;;;;12.45;3.65;;;;;;;1.14;100.00;100149.16;5066069;28;20158;-50
2024/02/08 04:03:43;;;;;;;11.80;3.22;;;;;;;1.15;100.00;100145.66;5070914;28;20118;-48
2024/02/08 04:06:26;;;;;;;11.98;3.53;;;;;;;1.18;100.00;100149.88;5071856;28;20448;-48
2024/02/08 04:09:08;;;;;;;11.18;3.00;;;;;;;1.18;100.00;100155.06;5075685;28;20478;-49
2024/02/08 04:55:59;;;;;;;15.00;6.13;;;;;;;1.24;100.00;100115.13;5074384;28;20048;-52
2024/02/08 04:58:29;;;;;;;17.48;6.60;;;;;;;1.24;100.00;100115.13;5074369;28;20041;-51
2024/02/08 05:01:20;;;;;;;15.73;7.70;;;;;;;1.20;100.00;100110.97;5069637;28;20072;-49
2024/02/08 05:03:49;;;;;;;17.88;6.38;;;;;;;1.23;100.00;100103.06;5070232;28;20048;-49
2024/02/08 05:06:19;;;;;;;14.20;6.90;;;;;;;1.21;100.00;100102.31;5074160;28;20044;-48
2024/02/08 05:08:57;;;;;;;17.27;8.02;;;;;;;1.18;100.00;100111.88;5072661;28;20197;-51
2024/02/08 05:11:28;;;;;;;18.25;7.97;;;;;;;1.16;100.00;100111.09;5065924;28;20043;-50
2024/02/08 05:14:00;;;;;;;16.95;7.55;;;;;;;1.16;100.00;100121.47;5073231;28;20044;-49
2024/02/08 05:16:31;;;;;;;19.40;8.25;;;;;;;1.14;100.00;100130.19;5074660;28;20045;-47
2024/02/08 05:18:59;;;;;;;17.00;8.15;;;;;;;1.21;100.00;100123.88;5073872;28;20040;-47
2024/02/08 05:21:30;;;;;;;19.38;7.68;;;;;;;1.16;100.00;100120.63;5075152;28;20516;-48
2024/02/08 05:24:01;;;;;;;14.00;7.63;;;;;;;1.14;100.00;100132.78;5074728;28;20057;-48
2024/02/08 05:26:31;;;;;;;14.65;8.07;;;;;;;1.14;100.00;100125.00;5074378;28;20702;-50
2024/02/08 05:29:01;;;;;;;18.83;7.55;;;;;;;1.13;100.00;100115.53;5072920;28;20127;-51
2024/02/08 05:31:29;;;;;;;13.38;7.55;;;;;;;1.12;100.00;100117.28;5070725;28;20139;-47
2024/02/08 05:33:58;;;;;;;15.60;7.57;;;;;;;1.15;100.00;100129.28;5073431;28;20052;-49
2024/02/08 05:36:29;;;;;;;22.92;8.50;;;;;;;1.14;100.00;100128.44;5074583;28;20048;-51
2024/02/08 05:38:57;;;;;;;15.98;8.30;;;;;;;1.15;100.00;100124.09;5073850;28;20492;-51
2024/02/08 05:41:33;;;;;;;15.50;7.88;;;;;;;1.15;100.00;100113.75;5069149;28;20665;-50
2024/02/08 05:44:05;;;;;;;14.05;7.43;;;;;;;1.14;100.00;100115.47;5072867;28;20102;-49
2024/02/08 05:46:38;;;;;;;17.80;7.82;;;;;;;1.16;100.00;100120.63;5073706;28;20040;-48
2024/02/08 05:49:13;;;;;;;14.63;7.60;;;;;;;1.15;100.00;100119.75;5070751;28;20124;-46
2024/02/08 05:51:46;;;;;;;17.90;8.85;;;;;;;1.16;100.00;100110.25;5070812;28;20040;-49
2024/02/08 05:54:16;;;;;;;;;;;;;;;1.15;100.00;100105.97;5072546;28;20101;-47
2024/02/08 05:56:46;;;;;;;14.93;7.40;;;;;;;1.14;100.00;100106.88;5073407;28;19920;-45
2024/02/08 05:59:17;;;;;;;18.75;8.27;;;;;;;1.14;100.00;100115.47;5073509;28;20052;-48
2024/02/08 06:01:47;;;;;;;19.02;7.95;;;;;;;1.16;100.00;100110.25;5073893;28;20123;-48
2024/02/08 06:04:22;;;;;;;16.65;8.20;;;;;;;1.15;100.00;100101.63;5073834;28;20488;-49
2024/02/08 06:06:58;;;;;;;15.13;7.57;;;;;;;1.18;100.00;100098.91;5070753;28;20459;-48
2024/02/08 06:09:47;;;;;;;14.80;7.80;;;;;;;1.19;100.00;100099.78;5068502;28;20071;-47
2024/02/08 06:12:28;;;;;;;17.58;9.05;;;;;;;1.20;100.00;100108.38;5073311;28;20052;-48
2024/02/08 06:14:59;;;;;;;17.20;7.50;;;;;;;1.19;100.00;100099.78;5073829;28;20052;-49
2024/02/08 06:17:31;;;;;;;20.17;8.93;;;;;;;1.20;100.00;100106.66;5073851;28;20076;-52
2024/02/08 06:20:08;;;;;;;17.17;7.30;;;;;;;1.22;100.00;100106.59;5073416;28;20047;-50
2024/02/08 06:22:43;;;;;;;20.33;8.07;;;;;;;1.23;100.00;100096.16;5071359;28;20039;-49
2024/02/08 06:25:27;;;;;;;15.25;7.35;;;;;;;1.26;100.00;100092.63;5067495;28;20097;-49
2024/02/08 06:27:58;;;;;;;16.15;7.47;;;;;;;1.24;100.00;100079.72;5070032;28;20495;-48
2024/02/08 06:30:30;;;;;;;18.42;7.90;;;;;;;1.25;100.00;100083.16;5070121;28;20052;-51
2024/02/08 06:33:16;;;;;;;13.98;7.00;;;;;;;1.24;100.00;100091.81;5070103;28;20490;-50
2024/02/08 06:35:45;;;;;;;14.85;6.75;;;;;;;1.26;100.00;100101.22;5070252;28;20051;-48
2024/02/08 06:38:28;;;;;;;16.85;7.30;;;;;;;1.27;100.00;100091.69;5069414;28;20487;-51
2024/02/08 06:40:56;;;;;;;18.13;7.43;;;;;;;1.27;100.00;100099.47;5067298;28;20048;-47
2024/02/08 06:43:44;;;;;;;16.60;7.13;;;;;;;1.28;100.00;100096.84;5067942;28;20487;-47
2024/02/08 06:46:17;;;;;;;14.43;6.60;;;;;;;1.30;100.00;100096.78;5072692;28;20049;-49
2024/02/08 07:37:13;;;;;;;18.60;7.57;;;;;;;1.30;100.00;100091.59;5069592;28;20121;-48
2024/02/08 07:38:53;;;;;;;19.13;10.20;;;;;;;1.37;100.00;100037.78;5067797;28;20654;-50
2024/02/08 07:41:23;;;;;;;24.63;11.05;;;;;;;1.37;100.00;100020.50;5059826;28;20044;-48
2024/02/08 07:43:55;;;;;;;21.27;10.63;;;;;;;1.39;100.00;100017.84;5070493;28;20138;-48
2024/02/08 07:46:29;;;;;;;21.52;11.38;;;;;;;1.40;100.00;100010.00;5067321;28;20438;-48
2024/02/08 07:49:04;;;;;;;17.70;9.90;;;;;;;1.43;100.00;100002.13;5068684;28;20048;-48
2024/02/08 07:51:34;;;;;;;17.65;10.13;;;;;;;1.44;100.00;99993.41;5070593;28;20071;-51
2024/02/08 07:54:10;;;;;;;18.92;9.88;;;;;;;1.43;100.00;99993.47;5070667;28;20548;-50
2024/02/08 07:56:46;;;;;;;20.08;9.05;;;;;;;1.50;100.00;99990.59;5065651;28;20045;-53
2024/02/08 07:59:16;;;;;;;17.67;8.88;;;;;;;1.49;100.00;99985.47;5069433;28;20037;-51
2024/02/08 08:01:50;;;;;;;17.95;9.20;;;;;;;1.50;100.00;99981.94;5066594;28;20135;-49
2024/02/08 08:07:02;;;;;;;20.05;9.52;;;;;;;1.53;100.00;99987.03;5067350;28;20106;-49
2024/02/08 08:09:31;;;;;;;19.75;9.80;;;;;;;1.53;100.00;99987.03;5070893;28;20041;-49
2024/02/08 08:11:59;;;;;;;14.07;8.32;;;;;;;1.55;100.00;99989.56;5074155;28;20115;-52
2024/02/08 08:17:16;;;;;;;22.75;11.50;;;;;;;1.62;100.00;99994.44;5047416;28;20048;-49
2024/02/08 08:19:47;;;;;;;20.48;9.20;;;;;;;1.66;100.00;99995.13;5069991;28;20472;-50
2024/02/08 08:25:28;;;;;;;21.90;9.30;;;;;;;1.74;100.00;99977.50;5063362;28;20048;-48
2024/02/08 08:30:53;;;;;;;19.23;8.77;;;;;;;1.83;100.00;99976.28;5050359;28;20056;-47
2024/02/08 08:33:58;;;;;;;22.25;8.60;;;;;;;1.83;100.00;99966.75;5070912;28;20385;-50
2024/02/08 08:36:28;;;;;;;17.08;8.45;;;;;;;1.93;100.00;99964.59;5069615;28;20068;-49
2024/02/08 08:39:46;;;;;;;19.75;8.88;;;;;;;1.98;100.00;99959.22;5065632;28;20444;-50
2024/02/08 08:41:48;;;;;;;19.90;9.13;;;;;;;1.97;100.00;99958.34;5069253;28;20068;-47
2024/02/08 08:44:18;;;;;;;18.83;8.95;;;;;;;2.02;100.00;99950.41;5071667;28;20049;-47
2024/02/08 08:46:47;;;;;;;18.33;8.32;;;;;;;2.08;100.00;99942.31;5071829;28;20076;-47
2024/02/08 08:49:20;;;;;;;23.15;8.40;;;;;;;2.13;100.00;99931.75;5071980;28;20534;-49
2024/02/08 08:51:58;;;;;;;17.27;8.18;;;;;;;2.11;100.00;99924.03;5069322;28;20059;-48
2024/02/08 08:54:29;;;;;;;23.10;8.57;;;;;;;2.17;100.00;99921.16;5073048;28;20056;-47
2024/02/08 08:56:58;;;;;;;19.90;7.78;;;;;;;2.23;100.00;99924.41;5074004;28;20048;-49
2024/02/08 08:59:29;;;;;;;19.35;7.95;;;;;;;2.27;100.00;99924.19;5073463;28;20123;-50
2024/02/08 09:02:00;;;;;;;18.98;7.43;;;;;;;2.32;100.00;99926.59;5073596;28;20106;-47
2024/02/08 09:04:35;;;;;;;18.55;6.72;;;;;;;2.36;100.00;99913.41;5073491;28;20475;-47
2024/02/08 09:07:10;;;;;;;19.50;7.65;;;;;;;2.42;100.00;99911.44;5070460;28;20051;-47
2024/02/08 09:10:00;;;;;;;18.15;7.07;;;;;;;2.49;100.00;99908.47;5070362;28;20116;-49
2024/02/08 09:12:36;;;;;;;18.88;7.25;;;;;;;2.52;100.00;99903.16;5072055;28;20048;-48
2024/02/08 09:17:52;;;;;;;20.23;6.72;;;;;;;2.55;100.00;99899.56;5073648;28;20074;-47
2024/02/08 09:20:22;;;;;;;20.88;6.75;;;;;;;2.61;100.00;99895.84;5074152;28;20046;-47
2024/02/08 09:22:57;;;;;;;21.25;8.88;;;;;;;2.63;100.00;99897.47;5060401;28;20056;-49
2024/02/08 09:25:26;;;;;;;22.10;7.38;;;;;;;2.71;100.00;99894.47;5069121;28;20048;-48
2024/02/08 09:28:23;;;;;;;20.77;6.20;;;;;;;2.73;100.00;99895.25;5074623;28;20120;-47
2024/02/08 09:30:57;;;;;;;18.05;6.65;;;;;;;2.74;100.00;99896.94;5075024;28;20138;-51
2024/02/08 09:33:35;;;;;;;17.38;6.85;;;;;;;2.76;100.00;99896.88;5074406;28;20049;-46
2024/02/08 09:36:04;;;;;;;14.35;6.13;;;;;;;2.78;100.00;99888.09;5071919;28;20048;-47
2024/02/08 09:38:43;;;;;;;16.58;6.60;;;;;;;2.79;100.00;99888.94;5073042;28;20518;-58
2024/02/08 09:41:16;;;;;;;16.30;5.22;;;;;;;2.83;100.00;99878.31;5073604;28;20040;-57
2024/02/08 09:43:46;;;;;;;16.60;6.05;;;;;;;2.86;100.00;99874.72;5073197;28;20036;-58
2024/02/08 09:46:49;;;;;;;17.05;6.22;;;;;;;2.90;100.00;99876.25;5070264;28;20072;-58
2024/02/08 09:49:13;;;;;;;23.77;6.93;;;;;;;2.91;100.00;99871.91;5068240;28;20119;-59
2024/02/08 09:51:51;;;;;;;18.63;6.90;;;;;;;2.87;100.00;99863.44;5070257;28;20051;-58
2024/02/08 09:54:28;;;;;;;18.08;6.53;;;;;;;2.90;100.00;99858.06;5068470;28;20044;-58
2024/02/08 09:57:02;;;;;;;15.43;6.18;;;;;;;2.92;100.00;99858.00;5071403;28;20124;-58
2024/02/08 10:00:01;;;;;;;19.85;6.85;;;;;;;2.94;100.00;99848.38;5071741;28;20490;-59
2024/02/08 10:02:37;;;;;;;21.40;6.93;;;;;;;2.97;100.00;99841.28;5070808;28;20080;-58
2024/02/08 10:05:48;;;;;;;17.70;6.50;;;;;;;3.00;100.00;99837.69;5069397;28;20044;-59
2024/02/08 10:08:28;;;;;;;16.80;6.65;;;;;;;3.08;100.00;99845.09;5069589;28;20705;-59
2024/02/08 10:11:11;;;;;;;20.02;7.32;;;;;;;3.04;100.00;99839.19;5067928;28;20404;-58
2024/02/08 10:13:53;;;;;;;20.25;6.18;;;;;;;3.07;100.00;99826.09;5069133;28;20131;-58
2024/02/08 10:16:42;;;;;;;19.43;7.33;;;;;;;3.14;100.00;99811.84;5070444;28;20045;-59
2024/02/08 10:19:24;;;;;;;19.17;7.45;;;;;;;3.14;100.00;99817.06;5070855;28;20805;-58
2024/02/08 10:21:58;;;;;;;23.70;7.20;;;;;;;3.12;100.00;99813.72;5070120;28;20137;-58
2024/02/08 10:24:27;;;;;;;20.30;6.97;;;;;;;3.15;100.00;99802.28;5069292;28;20199;-58
2024/02/08 10:26:58;;;;;;;15.13;6.63;;;;;;;3.18;100.00;99795.19;5070891;28;20036;-58
2024/02/08 10:29:31;;;;;;;17.40;7.28;;;;;;;3.24;100.00;99790.59;5069021;28;20045;-59
2024/02/08 10:32:01;;;;;;;22.98;7.38;;;;;;;3.25;100.00;99774.94;5066444;28;20057;-58
2024/02/08 10:34:39;;;;;;;20.65;7.45;;;;;;;3.31;100.00;99778.97;5068549;28;20052;-58
2024/02/08 10:37:26;;;;;;;18.95;6.78;;;;;;;3.36;100.00;99774.38;5069160;28;20468;-58
2024/02/08 10:39:59;;;;;;;20.20;7.55;;;;;;;3.40;100.00;99773.28;5066342;28;20080;-58
2024/02/08 10:42:37;;;;;;;19.98;7.90;;;;;;;3.44;100.00;99769.63;5072431;28;20110;-58
2024/02/08 10:45:07;;;;;;;17.90;7.90;;;;;;;3.37;100.00;99765.66;5069640;28;20052;-58
2024/02/08 10:47:39;;;;;;;19.02;8.18;;;;;;;3.40;100.00;99755.09;5070607;28;20595;-58
2024/02/08 10:50:19;;;;;;;23.70;7.80;;;;;;;3.35;100.00;99757.94;5072518;28;20123;-58
2024/02/08 10:52:51;;;;;;;16.40;7.10;;;;;;;3.35;100.00;99755.34;5071051;28;20042;-58
2024/02/08 10:55:20;;;;;;;18.65;7.38;;;;;;;3.33;100.00;99756.34;5068564;28;20101;-58
2024/02/08 11:01:12;;;;;;;23.48;8.15;;;;;;;3.33;100.00;99751.16;5065162;28;20083;-53
2024/02/08 11:03:52;;;;;;;22.52;8.30;;;;;;;3.30;100.00;99733.94;5068358;28;20048;-58
2024/02/08 11:06:29;;;;;;;23.83;8.00;;;;;;;3.31;100.00;99727.00;5067936;28;20047;-57
2024/02/08 11:09:14;;;;;;;22.08;8.43;;;;;;;3.24;100.00;99715.25;5070033;28;20542;-58
2024/02/08 11:11:47;;;;;;;24.33;7.80;;;;;;;3.32;100.00;99713.91;5067803;28;20048;-56
2024/02/08 11:14:19;;;;;;;24.13;7.95;;;;;;;3.27;100.00;99704.69;5071600;28;20036;-58
2024/02/08 11:16:51;;;;;;;15.77;7.25;;;;;;;3.27;100.00;99707.28;5069994;28;20055;-49
2024/02/08 11:19:22;;;;;;;20.08;7.32;;;;;;;3.27;100.00;99709.88;5070910;28;20032;-57
2024/02/08 11:21:51;;;;;;;19.52;7.82;;;;;;;3.27;100.00;99708.09;5069426;28;20492;-48
2024/02/08 11:24:27;;;;;;;18.55;7.53;;;;;;;3.25;100.00;99717.75;5070906;28;20028;-52
2024/02/08 11:27:01;;;;;;;16.70;7.05;;;;;;;3.33;100.00;99709.56;5067416;28;20045;-47
2024/02/08 11:29:42;;;;;;;18.70;8.73;;;;;;;3.33;100.00;99699.16;5070993;28;20036;-52
2024/02/08 11:32:16;;;;;;;19.80;7.72;;;;;;;3.33;100.00;99691.38;5071163;28;20060;-48
2024/02/08 11:34:45;;;;;;;19.02;8.88;;;;;;;3.21;100.00;99698.06;5069608;28;20434;-48
2024/02/08 11:37:19;;;;;;;19.63;7.93;;;;;;;3.25;100.00;99693.53;5068993;28;20045;-47
2024/02/08 11:39:59;;;;;;;20.50;7.90;;;;;;;3.27;100.00;99676.09;5072006;28;20550;-48
2024/02/08 11:42:35;;;;;;;18.05;8.00;;;;;;;3.29;100.00;99679.47;5072457;28;20053;-48
2024/02/08 11:45:09;;;;;;;19.02;7.78;;;;;;;3.33;100.00;99680.97;5068685;28;20120;-49
2024/02/08 11:47:48;;;;;;;20.67;8.10;;;;;;;3.30;100.00;99666.38;5069236;28;20043;-48
2024/02/08 11:50:22;;;;;;;18.23;7.35;;;;;;;3.32;100.00;99661.09;5070440;28;20045;-48
2024/02/08 11:52:57;;;;;;;22.13;8.40;;;;;;;3.33;100.00;99683.56;5069616;28;20048;-47
2024/02/08 11:55:28;;;;;;;20.23;7.90;;;;;;;3.35;100.00;99685.19;5065446;28;20575;-47
2024/02/08 11:58:05;;;;;;;18.42;8.05;;;;;;;3.33;100.00;99684.41;5070704;28;20043;-51
2024/02/08 12:00:48;;;;;;;19.92;7.75;;;;;;;3.37;100.00;99675.53;5072267;28;20052;-47
2024/02/08 12:03:18;;;;;;;16.65;7.50;;;;;;;3.44;100.00;99675.19;5072131;28;20045;-48
2024/02/08 12:05:53;;;;;;;25.58;8.65;;;;;;;3.52;100.00;99668.66;5071898;28;20464;-47
2024/02/08 12:08:23;;;;;;;18.30;7.60;;;;;;;3.48;100.00;99685.34;5072012;28;20123;-49
2024/02/08 12:11:04;;;;;;;19.50;8.20;;;;;;;3.51;100.00;99674.75;5071690;28;20054;-51
2024/02/08 12:13:38;;;;;;;23.20;8.18;;;;;;;3.55;100.00;99665.88;5072291;28;20068;-51
2024/02/08 12:16:11;;;;;;;20.58;8.10;;;;;;;3.48;100.00;99663.72;5072123;28;20585;-47
2024/02/08 12:18:41;;;;;;;18.77;7.90;;;;;;;3.49;100.00;99648.03;5070596;28;20072;-51
2024/02/08 12:21:17;;;;;;;18.65;8.20;;;;;;;3.47;100.00;99657.66;5070142;28;20051;-49
2024/02/08 12:23:53;;;;;;;21.15;8.25;;;;;;;3.46;100.00;99660.34;5069206;28;20040;-51
2024/02/08 12:26:24;;;;;;;21.55;8.85;;;;;;;3.46;100.00;99671.56;5070272;28;20048;-47
2024/02/08 12:28:56;;;;;;;21.73;8.60;;;;;;;3.48;100.00;99669.75;5074289;28;20123;-50
2024/02/08 12:31:29;;;;;;;26.50;9.30;;;;;;;3.47;100.00;99656.84;5074389;28;20056;-50
2024/02/08 12:34:03;;;;;;;19.00;8.35;;;;;;;3.50;100.00;99648.84;5075793;28;20124;-49
2024/02/08 12:36:35;;;;;;;19.42;7.43;;;;;;;3.45;100.00;99636.13;5073645;28;20408;-49
2024/02/08 12:39:17;;;;;;;22.35;7.47;;;;;;;3.44;100.00;99631.84;5074216;28;20059;-50
2024/02/08 12:41:46;;;;;;;19.42;7.55;;;;;;;3.38;100.00;99629.56;5071808;28;20530;-47
2024/02/08 12:44:15;;;;;;;17.02;7.53;;;;;;;3.37;100.00;99618.34;5075681;28;20041;-47
2024/02/08 12:46:49;;;;;;;17.35;7.30;;;;;;;3.32;100.00;99615.16;5073921;28;20101;-47
2024/02/08 12:49:20;;;;;;;17.25;8.43;;;;;;;3.35;100.00;99607.19;5071744;28;20052;-47
2024/02/08 12:51:49;;;;;;;19.02;7.30;;;;;;;3.36;100.00;99587.22;5074332;28;20052;-46
2024/02/08 12:54:17;;;;;;;21.30;7.35;;;;;;;3.29;100.00;99562.53;5070830;28;20052;-59
2024/02/08 12:56:46;;;;;;;16.65;6.88;;;;;;;3.22;100.00;99555.03;5074561;28;20427;-58
2024/02/08 12:59:19;;;;;;;20.85;8.10;;;;;;;3.18;100.00;99561.34;5073917;28;20510;-58
2024/02/08 13:01:50;;;;;;;20.48;7.93;;;;;;;3.19;100.00;99560.41;5075009;28;20053;-51
2024/02/08 13:04:19;;;;;;;17.35;7.00;;;;;;;3.09;100.00;99542.81;5075375;28;20044;-50
2024/02/08 13:06:49;;;;;;;19.70;6.85;;;;;;;3.11;100.00;99541.81;5072024;28;20055;-48
2024/02/08 13:09:26;;;;;;;16.08;6.93;;;;;;;3.09;100.00;99543.66;5071160;28;20542;-47
2024/02/08 13:12:19;;;;;;;14.23;6.97;;;;;;;2.99;100.00;99537.28;5070442;28;20098;-50
2024/02/08 13:15:02;;;;;;;16.15;6.32;;;;;;;2.95;100.00;99536.59;5072646;28;20048;-49
2024/02/08 13:17:34;;;;;;;14.88;5.82;;;;;;;2.96;100.00;99538.28;5074964;28;20037;-51
2024/02/08 13:20:11;;;;;;;14.65;5.25;;;;;;;2.94;100.00;99534.94;5072434;28;20129;-51
2024/02/08 13:22:45;;;;;;;14.68;5.38;;;;;;;2.90;100.00;99528.22;5073151;28;20515;-47
2024/02/08 13:25:15;;;;;;;16.33;5.82;;;;;;;2.91;100.00;99523.88;5069149;28;20389;-51
2024/02/08 13:27:45;;;;;;;15.88;5.47;;;;;;;2.90;100.00;99511.81;5071384;28;20036;-48
2024/02/08 13:30:15;;;;;;;11.43;4.57;;;;;;;2.89;100.00;99500.59;5073570;28;20064;-47
2024/02/08 13:32:49;;;;;;;12.25;4.72;;;;;;;2.83;100.00;99485.34;5072065;28;20045;-47
2024/02/08 13:35:19;;;;;;;16.42;4.50;;;;;;;2.88;100.00;99483.34;5073310;28;20094;-46
2024/02/08 13:37:50;;;;;;;12.68;5.20;;;;;;;2.82;100.00;99471.53;5070391;28;20045;-47